Central Coast CX #4

Cyclocross: Sunday Sept. 18, 2016 – Schedule
Part of the 2016-17 CCCX Cyclocross Series

Results: Group B

Men B

Place # First Last City Cat Team License Age Laps @ Time Points
1 61 Michael MACHADO Salinas, CA 5 0481783 27 7 @ 00:46:18 50
2 16 Ben LOVELACE 5 Zaazy Factory Racing 8888033 7 @ 00:46:29 47
3 8 Jordy MALMBERG Aptos, CA 4 Family Cycling Center 0459668 15 7 @ 00:46:30 45
4 9 Jose REYNADO 5 Family Cycling 8888036 7 @ 00:47:16 44
5 82 Gene SELKOV Santa Cruz, CA 5 Spokesman Bicycles 0516743 26 7 @ 00:47:23 43
6 59 Dylan ATKINSON Los Gatos, CA 5 0493644 14 7 @ 00:47:26 42
7 67 Jacob SALASSI Fremont, CA 3 Team Fremont/FFBC 0361496 33 7 @ 00:47:32 41
8 79 Chirs RESENDEZ 5 Spokesman Bicycles 8888103 7 @ 00:47:44 40
9 62 Nicholas THIEL 5 Bay Bikes 8888037 7 @ 00:49:17 39
10 4 Travis ALONGI Gilroy, CA 4 Zaavy Factory Racing 0304690 31 7 @ 00:49:42 38
11 56 Nathan DAVIS Marina, CA 5 Bay Bikes 0513636 15 7 @ 00:50:22 37
12 80 Simon GILBERT 5 Spokesman 8888104 7 @ 00:52:44 36
13 70 Alex MCCANN 5 8888034 7 @ 00:52:56 35
14 84 Alvin CHAN Oakland, CA 5 0394319 35 6 @ 00:46:26 34
15 69 Nico CERNA 5 RMP/PBW 8888031 6 @ 00:47:46 33
DNF 10 Javier VALENCIA 5 Rock Lobster 8888038 - 1
Field: 16 of 99

Masters Men 35+ B

Place # First Last City Cat Team License Age Laps @ Time Points
1 303 Joshua KLIKNA Merced, CA 5 Bell Real Estate Cycling 0119460 36 7 @ 00:49:05 50
2 367 Max NACHURY 5 Team Roaring Mouse 184729 7 @ 00:50:53 47
3 304 Joseph DESANTE 5 Highway 68 Hillbillies 8888040 7 @ 00:51:59 45
4 353 Jason VILLARIN Oakland, CA 5 0515193 40 7 @ 00:52:40 44
5 306 Bernardo TAPIA Redwood City, CA 5 Stanford University 0456472 43 7 @ 00:53:25 43
Field: 5 of 100

Masters Men 45+ B

Place # First Last City Cat Team License Age Laps @ Time Points
1 604 Bryan BERRY Boulder Creek, CA 3 0310943 46 7 @ 00:48:26 50
2 673 Giles HEALEY Carmel, CA 3 0158386 47 7 @ 00:48:27 47
3 660 Brian FERRARIO San Jose, CA 3 0088248 50 7 @ 00:48:32 45
4 611 Courtney GROSSMAN Salinas, CA 3 0086795 51 7 @ 00:48:42 44
5 652 R FETHERSTON Los Gatos, CA 4 0046408 64 7 @ 00:49:13 43
6 668 Jason RIMMER Santa Cruz, CA 5 0517866 46 7 @ 00:49:17 42
7 667 Philip VRIELING Modesto, CA 4 Funsport Bikes Cycling Team 0185026 53 7 @ 00:49:49 41
8 653 John VAHLBERG Mountain View, CA 3 0302136 46 7 @ 00:49:56 40
9 600 Andrew HORVAI San Mateo, CA 4 Pen Velo Racing/Summit Bicycles 0418485 49 7 @ 00:49:56 39
10 679 Jorge PONT Menlo Park, CA 4 SunPower Racing 0237177 52 7 @ 00:50:06 38
11 661 Jim ATKINSON Los Gatos, CA 5 0517134 54 7 @ 00:50:20 37
12 656 Steve ANDERSON Carmel By The Sea, CA 3 Team Roaring Mouse 0236231 51 7 @ 00:50:48 36
13 620 Scott SCHLACHTER 5 Team Wrong Way 8888105 7 @ 00:51:00 35
14 671 Scott FREIERMUTH Menlo Park, CA 4 CoreTechs Cycling Team 0059509 48 7 @ 00:51:07 34
15 603 Frank KALCIC Sunnyvale, CA 3 0272461 51 7 @ 00:51:25 33
16 663 Scott ZAVACK Morgan Hill, CA 4 0226979 49 7 @ 00:51:41 32
17 610 Darrel BROKESHOULDER 5 Los Gatos BC 8888043 7 @ 00:51:59 31
18 672 Lochlan MCVICAR 5 California Custom Sheds 8888045 7 @ 00:52:09 30
19 609 Michael SCHALLER 5 Rock Lobster 8888048 7 @ 00:52:22 29
20 616 Shawn VARNER Templeton, CA 4 ChristianCycling Colorado 0096154 47 7 @ 00:52:34 28
21 680 Boris FOELSCH 5 MVV 8888106 7 @ 00:53:09 27
22 682 Matt NEWMAN San Francisco, CA 3 0367774 46 7 @ 00:53:36 26
23 654 Brian GOKEY San Jose, CA 4 Jakroo 0392565 44 6 @ 00:46:37 25
24 681 Juan ORTIZ Castro Valley, CA 4 0026838 49 6 @ 00:47:18 24
Field: 24 of 100

Single Speed Men B

Place # First Last City Cat Team License Age Laps @ Time Points
1 258 Frances JOSE 5 Team Crash 8888053 7 @ 00:52:12 50
2 254 Matt WHITBY 5 Menlo Velo 8888010 7 @ 00:53:00 47
3 208 Rick ORTENBLAD Santa Cruz, CA 4 0359872 62 6 @ 00:46:52 45
Field: 3 of 100
Table notes: